Liste de bulletins - vue carte · info · télémétrie · météo · trame · statuts · balises · messages · bulletins · naviguer · bouger · Mon compte

Cette page montre les bulletins APRS et les messages d'annonces depuis les dernières 24 heures.

Selectionnez un groupe de bulletins:
    all APRS IGI LARU LOCAL LUX MAREA SYDTD SYDWX WX

Bulletins et annonces envoyées par les stations à une distance de 500 km de votre position
Indicatif Identifiant message âge
KB2HSH BLN Send a message to WXBOT for a weather forecast at your location. 5h28m
N2NUO-15 BLN0 WxBot 1.22 US weather forecast via APRS message. 3h25m
N2NUO-15 BLN1 Send a message to N2NUO-15 for a weather forecast at your location. 3h25m
N2NUO-15 BLN2 see https://sites.google.com/site/ki6wjp/wxbot 3h25m
Bulletins (BLN0 - BLN9)
Indicatif Identifiant message âge
9Z4RG-6 BLN0 APRS IGate 144.390MHz SGate 145.825MHz 4m23s
CT2JKO-10 BLN0 Does someone use APRS messages? 8h43m
CX2SA-AB BLN1 ((((((( CX2SA - Salto Uruguay ))))))) http://www.cx2sa.org 23m36s
CX2SA-AB BLN2 CX2SA-EM APRS Email - Example> your@maildomain Hello World! 23m34s
CX2SA-AB BLN3 Send message to CX2SA-WI like: F callsign to WHO-IS info 23m32s
CX2SA-AB BLN4 ((( CX2SA-S1 ))) iAPRS Network http://www.iaprs.net 23m30s
CX2SA-AB BLN5 DOWNLOAD latest iAPRS servers list at http://cx2sa.org/SERVERS.TXT 23m28s
DB2HTA BLN0 DB2HTA, Herby looking for Olivia mode QSO, db2hta@darc.de 8h49m
K7YVO-15 BLN0 K7YVO-10 Winlink RMS E-Mail Gateway 145.610 43s
N4SAR BLN0 Taking ARES NET APRS check-ins for ESCAMBIA 14h57m
N4SAR BLN1 Escambia Co ARES Net 1930 on 146.76R 14h58m
PY5BK-10 BLN0 Ricardo Aurelio Seco - py5bk@qsl.net - (43) 9.9919-0404 17m39s
PY5BK-10 BLN1 Equipamentos e Projetos de APRS - http://www.py5bk.net/aprs 17m27s
SBAA BLN0 Conceicao do Araguaia Airport METAR SBAA 171500Z 08010KT CAVOK 36/13 Q1016 16m56s
SBAF BLN0 Campo Delio Jardim de Mattos Airport METAR SBAF 171500Z 22008KT 9000 NSC 27/19 Q1022 16m27s
SBAN BLN0 Base Aerea Airport METAR SBAN 171500Z 06012KT 9999 FEW035 24/09 Q1024 16m17s
SBAR BLN0 Santa Maria Airport METAR SBAR 171500Z 11009KT 9999 FEW021 28/17 Q1019 16m7s
SBAT BLN0 Alta Floresta Airport METAR SBAT 171400Z 13008KT CAVOK 32/17 Q1017 1h15m
SBAU BLN0 Aracatuba Airport METAR SBAU 170900Z 13010KT CAVOK 20/09 Q1020 6h16m
SBAX BLN0 Araxa Airport METAR SBAX 171500Z 12011KT 9999 FEW030 24/10 Q1026 15m57s
SBBE BLN0 Val de Cans Julio Cezar Ribeiro International Airport METAR SBBE 171400Z 07009KT 9999 SCT020 29/23 Q1015 1h15m
SBBG BLN0 Comandante Gustavo Kraemer Airport METAR SBBG 171500Z 08010KT 9999 BKN013 SCT020 17/15 Q1017 15m39s
SBBH BLN0 Pampulha - Carlos Drummond de Andrade Airport METAR SBBH 170900Z 08004KT CAVOK 13/11 Q1025 6h15m
SBBI BLN0 Bacacheri Airport METAR SBBI 170100Z 13004KT 4000 BR SCT003 15/14 Q1026 14h15m
SBBQ BLN0 Major Brigadeiro Doorgal Borges Airport METAR SBBQ 171500Z 05006KT 350V110 9999 FEW035 22/10 Q1028 15m27s
SBBR BLN0 Presidente Juscelino Kubistschek International Airport METAR SBBR 171510Z 09013G23KT 9999 SCT040 24/09 Q1024 15m17s
SBBU BLN0 Bauru Airport METAR SBBU 170700Z 04008KT CAVOK 20/11 Q1022 8h15m
SBBV BLN0 Atlas Brasil Cantanhede Airport METAR SBBV 171500Z 14005KT 9999 VCSH BKN020 OVC070 29/24 Q1016 15m7s
SBBW BLN0 Barra do Garcas Airport METAR SBBW 171500Z 06008KT CAVOK 32/17 Q1019 14m57s
SBCA BLN0 Cascavel Airport METAR SBCA 171500Z 02022G32KT CAVOK 25/12 Q1023 14m44s
SBCB BLN0 Cabo Frio Airport METAR SBCB 171500Z 04005KT CAVOK 28/20 Q1022 14m34s
SBCC BLN0 Cachimbo Airport METAR SBCC 171500Z 06012KT 020V090 9999 FEW033 31/12 Q1018 14m23s
SBCF BLN0 Tancredo Neves International Airport METAR SBCF 171500Z 07006KT 9999 BKN030 22/12 Q1026 14m12s
SBCG BLN0 Campo Grande Airport METAR SBCG 171500Z 06014KT CAVOK 30/10 Q1020 14m2s
SBCH BLN0 Chapeco Airport METAR SBCH 171500Z 02014KT 9999 FEW020 SCT080 26/19 Q1021 13m52s
SBCI BLN0 Brig. Lysias Augusto Rodrigues Airport METAR SBCI 171500Z 10006KT 9999 FEW025 34/13 Q1016 13m44s
SBCJ BLN0 Carajas Airport METAR SBCJ 171500Z 14005KT CAVOK 28/15 Q1019 13m32s
SBCO BLN0 Canoas Airport METAR SBCO 171000Z 09007KT 7000 -TSRA FEW006 FEW040CB BKN057 OVC100 17/17 Q1019 RETS 5h13m
SBCP BLN0 Bartolomeu Lisandro Airport METAR SBCP 171500Z 05005KT CAVOK 28/19 Q1022 13m22s
SBCR BLN0 Corumba International Airport METAR SBCR 171500Z 07007KT CAVOK 29/19 Q1016 13m12s
SBCT BLN0 Afonso Pena Airport METAR SBCT 171500Z 08003KT CAVOK 22/13 Q1026 13m1s
SBCX BLN0 Campo dos Bugres Airport METAR SBCX 171500Z 36006KT 8000 BKN040 FEW060TCU 18/16 Q1021 12m51s
SBCY BLN0 Marechal Rondon Airport METAR SBCY 171500Z 29004KT CAVOK 33/12 Q1017 12m45s
SBCZ BLN0 Cruzeiro do Sul Airport METAR SBCZ 171500Z 10002KT CAVOK 27/22 Q1017 12m34s
SBDN BLN0 Presidente Prudente Airport METAR SBDN 171500Z 04013KT 350V100 CAVOK 30/07 Q1021 12m24s
SBEG BLN0 Eduardo Gomes International Airport METAR SBEG 171500Z 11006KT 9999 SCT020 31/22 Q1015 12m12s
SBEK BLN0 Jacareacanga Airport METAR SBEK 171400Z 09002KT CAVOK 32/25 Q1015 1h11m
SBES BLN0 Sao Pedro da Aldeia Airport METAR SBES 171500Z VRB02KT CAVOK 28/16 Q1022 11m52s
SBFI BLN0 Cataratas International Airport METAR SBFI 171500Z 02016KT CAVOK 30/13 Q1018 11m38s
SBFL BLN0 Hercilio Luz International Airport METAR SBFL 171500Z 35007KT 9999 FEW030 22/19 Q1023 11m25s
SBFN BLN0 Fernando de Noronha Airport METAR SBFN 171500Z 14015KT 9999 SCT020 SCT030 29/22 Q1016 11m13s
SBFZ BLN0 Pinto Martins International Airport METAR SBFZ 171500Z 10015KT CAVOK 29/18 Q1016 11m3s
SBGL BLN0 Galeao - Antonio Carlos Jobim International Airport METAR SBGL 171500Z 12007KT 6000 NSC 26/17 Q1021 10m53s
SBGM BLN0 Guajara-Mirim Airport METAR SBGM 171500Z 06003KT CAVOK 31/23 Q1016 10m44s
SBGO BLN0 Santa Genoveva Airport METAR SBGO 171500Z 06011KT CAVOK 27/12 Q1022 10m32s
SBGR BLN0 Guarulhos - Governador Andre Franco Montoro International Airport METAR SBGR 171500Z 05007KT CAVOK 24/10 Q1025 10m22s
SBGW BLN0 Guaratingueta Airport METAR SBGW 171500Z 08004KT 030V160 CAVOK 24/10 Q1024 10m12s
SBHT BLN0 Altamira Airport METAR SBHT 171500Z 09004KT 9999 BKN025 31/24 Q1015 10m2s
SBIC BLN0 Itacoatiara Airport METAR SBIC 171500Z 07004KT 9999 FEW017 32/25 Q1015 9m51s
SBIH BLN0 Itaituba Airport METAR SBIH 171500Z /////KT 9999 FEW020 32/24 Q1014 9m45s
SBIL BLN0 Bahia - Jorge Amado Airport METAR SBIL 170900Z 26003KT 3000 -RA SCT020 FEW025TCU BKN067 21/21 Q1021 6h11m
SBIP BLN0 Usiminas Airport METAR SBIP 171500Z 05006KT 9999 SCT030 27/19 Q1024 9m34s
SBIZ BLN0 Prefeito Renato Moreira Airport METAR SBIZ 171500Z 14008KT 9999 FEW020 34/17 Q1015 9m24s
SBJP BLN0 Presidente Castro Pinto Airport METAR SBJP 171500Z 12016KT 9999 BKN030 28/19 Q1018 9m13s
SBJR BLN0 Jacarepagua - Roberto Marinho Airport METAR SBJR 171200Z 03002KT 9000 NSC 23/18 Q1022 3h9m
SBJV BLN0 Lauro Carneiro de Loyola Airport METAR SBJV 171500Z 13010KT 9000 FEW015 23/20 Q1023 9m3s
SBKG BLN0 Presidente Joao Suassuna Airport METAR SBKG 171500Z 12013KT 9999 BKN037 27/18 Q1019 8m52s
SBKP BLN0 Viracopos International Airport METAR SBKP 171500Z VRB02KT CAVOK 27/06 Q1023 8m44s
SBLE BLN0 Chapada Diamantina Airport METAR SBLE 171500Z 35004KT 9999 VCSH BKN025 23/20 Q1022 8m34s
SBLO BLN0 Governador Jose Richa Airport METAR SBLO 171500Z 09010KT CAVOK 27/12 Q1023 8m22s
SBLP BLN0 Bom Jesus da Lapa Airport METAR SBLP 171200Z /////KT 9999 FEW030 25/16 Q1022 3h8m
SBLS BLN0 Lagoa Santa Airport METAR SBLS 171500Z VRB06KT 9999 BKN046 23/12 Q1025 8m12s
SBMA BLN0 Maraba Airport METAR SBMA 171500Z 07007KT 9999 FEW024 37/19 Q1015 8m2s
SBMD BLN0 Monte Dourado Airport METAR SBMD 171500Z 10005KT 9999 BKN018 29/25 Q1016 7m51s
SBME BLN0 Macae Airport METAR SBME 170900Z 36002KT CAVOK 15/14 Q1021 6h9m
SBMG BLN0 Regional de Maringa - Silvio Nane Junior Airport METAR SBMG 171500Z 03010KT CAVOK 28/11 Q1021 7m43s
SBMK BLN0 Mario Ribeiro Airport METAR SBMK 171300Z 10011KT 9999 BKN030 24/13 Q1024 2h6m
SBML BLN0 Marilia Airport METAR SBML 161900Z 03003KT CAVOK 29/13 Q1020 20h6m
SBMN BLN0 Ponta Pelada Airport METAR SBMN 171500Z 08003KT 9999 SCT020 31/24 Q1015 7m31s
SBMO BLN0 Zumbi dos Palmares Airport METAR SBMO 171500Z 13010KT 9999 SCT028 27/18 Q1019 7m21s
SBMQ BLN0 Alberto Alcolumbre Airport METAR SBMQ 171500Z 08007KT 9999 BKN023 31/25 Q1015 7m11s
SBMS BLN0 Dix-Sept Rosado Airport METAR SBMS 171200Z 19003KT CAVOK 28/16 Q1017 3h7m
SBMT BLN0 Campo de Marte Airport METAR SBMT 171500Z 06004KT 310V120 CAVOK 24/07 Q1025 7m1s
SBMY BLN0 Manicore Airport METAR SBMY 171500Z 18003KT CAVOK 32/24 Q1015 6m51s
SBNF BLN0 Ministro Victor Konder International Airport METAR SBNF 171500Z 11004KT 9999 SCT017 BKN035 20/18 Q1023 6m45s
SBNM BLN0 Santo Angelo Airport METAR SBNM 162000Z 13016KT 9999 BKN022 22/12 Q1016 19h6m
SBNT BLN0 Augusto Severo Airport METAR SBNT 171500Z 14020KT 9999 BKN027 29/20 Q1017 6m35s
SBOI BLN0 Oiapoque Airport METAR SBOI 171500Z 09003KT 9999 SCT025 SCT100 31/22 Q1015 6m25s
SBPA BLN0 Salgado Filho Airport METAR SBPA 171500Z 14007KT 4000 -TSRA BKN005 BKN040 FEW045CB OVC070 19/19 Q1021 6m15s
SBPB BLN0 Prefeito Doutor Joao Silva Filho Airport METAR SBPB 171500Z 07010KT 9999 SCT017 32/24 Q1014 6m3s
SBPC BLN0 Pocos de Caldas Airport METAR SBPC 171500Z 10008KT CAVOK 25/11 Q1026 5m52s
SBPF BLN0 Lauro Kurtz Airport METAR SBPF 171400Z 05018KT CAVOK 21/14 Q1020 1h5m
SBPJ BLN0 Brigadeiro Lysias Rodrigues Airport METAR SBPJ 170900Z 15006KT CAVOK 21/17 Q1016 6h7m
SBPK BLN0 Pelotas Airport METAR SBPK 171500Z 10020KT 5000 -RA OVC004 16/16 Q1020 5m44s
SBPL BLN0 Senador Nilo Coelho Airport METAR SBPL 171500Z 13010KT 9999 SCT025 28/16 Q1019 5m32s
SBPP BLN0 Ponta Pora Airport METAR SBPP 171500Z 33010KT CAVOK 28/12 Q1020 5m21s
SBPR BLN0 Carlos Prates Airport METAR SBPR 171500Z 09007KT 9999 BKN035 24/14 Q1026 5m10s
SBPS BLN0 Porto Seguro Airport METAR SBPS 171500Z 10010KT 9999 FEW020 27/19 Q1022 5m
SBPV BLN0 Governador Jorge Teixeira de Oliveira Airport METAR SBPV 171500Z 30002KT 9999 FEW045 31/21 Q1015 4m50s
SBQV BLN0 Vitoria da Conquista Airport METAR SBQV 171500Z 12008KT 9999 BKN020 21/16 Q1025 4m44s
SBRB BLN0 Placido de Castro Airport METAR SBRB 171500Z 09003KT CAVOK 31/20 Q1016 4m34s
SBRF BLN0 Guararapes - Gilberto Freyre International Airport METAR SBRF 171500Z 15011KT 9999 FEW025 28/20 Q1018 4m24s
SBRJ BLN0 Santos Dumont Airport METAR SBRJ 171500Z 14006KT 7000 FEW010 27/21 Q1021 4m14s
SBRP BLN0 Leite Lopes Airport METAR SBRP 171500Z 06009KT CAVOK 27/09 Q1022 4m2s
SBSC BLN0 Santa Cruz Airport METAR SBSC 171500Z 22011KT 9999 SCT013 24/20 Q1022 3m52s
SBSJ BLN0 Professor Urbano Ernesto Stumpf Airport METAR SBSJ 171500Z 31002KT CAVOK 24/11 Q1025 3m44s
SBSL BLN0 Marechal Cunha Machado International Airport METAR SBSL 171500Z 07007KT 9999 BKN017 FEW020TCU 30/24 Q1015 3m34s
SBSM BLN0 Santa Maria Airport METAR SBSM 171400Z 09007KT 9999 -TSRA SCT004 FEW030CB OVC070 17/16 Q1018 1h3m
SBSN BLN0 Maestro Wilson Fonseca Airport METAR SBSN 171500Z 07008KT 9999 SCT020 30/25 Q1015 3m24s
SBSP BLN0 Congonhas Airport METAR SBSP 171500Z 06008KT 020V090 CAVOK 24/06 Q1025 3m14s
SBSR BLN0 Sao Jose do Rio Preto Airport METAR SBSR 171500Z 10012KT CAVOK 27/08 Q1022 3m4s
SBST BLN0 Base Aerea de Santos Airport METAR SBST 171500Z 20007KT CAVOK 23/17 Q1022 2m54s
SBSV BLN0 Deputado Luiz Eduardo Magalhaes International Airport METAR SBSV 171500Z 11010KT 9999 SCT020 28/21 Q1020 2m44s
SBTA BLN0 Base de Aviacao de Taubate Airport METAR SBTA 171500Z 01004KT CAVOK 24/08 Q1024 2m33s
SBTC BLN0 Hotel Transamerica Airport METAR SBTC 171500Z 12008KT 9999 FEW020 27/24 Q1023 2m22s
SBTE BLN0 Senador Petronio Portela Airport METAR SBTE 171500Z 09006KT CAVOK 32/14 Q1015 2m12s
SBTF BLN0 Tefe Airport METAR SBTF 171500Z 30005KT 9999 SCT018 FEW025TCU 29/25 Q1015 2m1s
SBTK BLN0 Tarauaca Airport METAR SBTK 171500Z 10002KT CAVOK 31/23 Q1017 1m51s
SBTT BLN0 Tabatinga Airport METAR SBTT 171500Z 09003KT CAVOK 28/25 Q1016 1m45s
SBTU BLN0 Tucurui Airport METAR SBTU 171500Z /////KT CAVOK ///// Q1017 1m34s
SBUA BLN0 Sao Gabriel da Cachoeira Airport METAR SBUA 171500Z 30002KT 9999 SCT015 SCT100 29/25 Q1015 1m24s
SBUF BLN0 Paulo Afonso Airport METAR SBUF 171500Z 10011KT 9999 BKN021 28/16 Q1019 1m14s
SBUG BLN0 Rubem Berta Airport METAR SBUG 171500Z 04006KT 9999 SCT010 BKN025 BKN080 18/16 Q1016 1m4s
SBUL BLN0 Ten. Cel. Aviador Cesar Bombonato Airport METAR SBUL 170300Z 11009KT CAVOK 18/07 Q1024 12h4m
SBUR BLN0 Mario de Almeida Franco Airport METAR SBUR 171500Z 05011KT CAVOK 26/08 Q1024 54s
SBVH BLN0 Vilhena Airport METAR SBVH 171500Z 09009KT 030V140 CAVOK 30/14 Q1019 44s
SBVT BLN0 Eurico de Aguiar Salles Airport METAR SBVT 171500Z 03008KT 9999 BKN027 BKN080 27/21 Q1023 34s
SBYS BLN0 Campo Fontenelle Airport METAR SBYS 171500Z 04006KT 360V130 CAVOK 26/10 Q1023 21s
WA1GOV-10 BLN0 APRS to Twitter Gateway-Send an APRS message to WA1GOV-10 4h13m
WA1GOV-10 BLN1 Your call and message will appear as a tweet from @wa1gov 4h13m
WA1GOV-10 BLN2 Include your Twitter ID or IDs to receive notifications 4h13m
WA1GOV-10 BLN3 Get the next SATELLITE pass prediction for your QTH! 4h13m
WA1GOV-10 BLN4 Send an APRS message to WA1GOV-10 with a single 4h13m
WA1GOV-10 BLN5 uppercase entry of ISS, AO-85, AO-91, AO-92 or SO-50 4h13m
WXBOT BLN0 WxBot 1.25 US weather forecast via APRS message. 2h37m
WXBOT BLN1 Send a message to WXBOT for a weather forecast at your location. 2h37m
WXBOT BLN2 see https://sites.google.com/site/ki6wjp/wxbot 2h37m
WXSVR-AU BLN0 WxSvr 1.00 AU weather forecast via APRS message. 1h40m
WXSVR-AU BLN1 Send a message to WXSVR-AU for a weather forecast at your location. 1h40m
WXSVR-AU BLN2 see http://wxsvr.aprs.net.au for more info 1h40m
WXYO BLN0 WxBot 1.22 RO weather forecast via APRS message. 3h38m
WXYO BLN1 Send a message to WXYO for a weather forecast at your location. 3h38m
WXYO BLN2 see https://sites.google.com/site/ki6wjp/wxbot 3h38m
Annonces (BLNA - BLNZ)
Indicatif Identifiant message âge
VK5RHO-1 BLNB Join the Email Group aprs.net.au/mailman/listinfo/ozaprs 12m34s
Autres groupes
Indicatif Identifiant message âge
IK3SVW BLN1-17 SISMA *Solomon Is.* MW=6.1 Prof=84Km 17-07 07:02UTC 5h51m
IK3SVW BLN1MAREA Venezia 17/7 max=70cm@15:10 min=15cm@21:05 max=55cm@01:50 8h6m
IK3SVW BLN2MAREA Venezia 17/7 max=65cm@15:10 min=20cm@21:05 max=50cm@02:10 4h10m
IK3SVW BLN3MAREA Venezia 17/7 max=80cm@16:00 min=20cm@21:05 max=50cm@02:10 2h6m
IK3SVW BLN4MAREA Venezia 17/7 min=20cm@21:05 max=50cm@02:10 min=-10cm@08:45 33m47s
LX0APN-2 BLNALUX XLX270 Reflector https://xlx270.epf.lu/ 24m9s
LX0APR-2 BLNDIGI Pse use WIDEx-x & LUXx-x only , TNX 46m21s
LX0SCI-2 BLNALARU LARU NET TUE@18 UTC DMR BM TG2707 19h26m
LX1CU-13 BLNALUX XLX Reflector goes DMR https://xlx270.epf.lu/ 12m51s
LX6K-10 BLNALUX XLX270 B >< BM TG 27090 , You can reach us . 73 1m54s
NEUTBA BLN1SYDWX Sydney Forcast 18th 19C Sunny. 8h42m
NEUTBA BLN2SYDTD Tide 1.77M, Vis 25Km, Cloud 00 Okt, Air Qual 30, UV idx 44m45s
OK1COM-10 BLN4WX SIGWX: 16/18 NE PART ISOL EMBD TS 13m24s
YM2KDU BLN APRS Sabitte YM2KDU,WIDE2-2 Mobilde WIDE1-1,WIDE2-2 5h54m
YM2KY BLN1LOCAL info@sakrad.org 12m16s
A propos de ce site
Cette page affiche en temps réel les informations recueillies par le système de suivi automatique de position ( (APRS) Automatic Position Reporting System sur le réseau Internet (APRS-IS). L'APRS est utilisé par les radioamateurs afin de transmettre en temps réel les informations de position, les données météorologiques, la télémétrie et les messages par les ondes radio. Un véhicule équipé d'un récepteur GPS , un émetteur VHF ou HF et un petit appareil appelé tracker transmet son emplacement, la vitesse et le cap dans un petit paquet de données, qui est ensuite reçu par un récepteur à proximité des passerelles internet (iGate) qui envoie le paquet sur Internet. Les systèmes connectés à Internet peuvent envoyer des informations sur l'APRS-IS sans émetteur radio, ou de recueillir et d'afficher des informations transmises partout dans le monde.
FAQ · Blog · Groupe de discussion · Lien vers aprs.fi · Sites AIS · Statut du service · Statistiques de la base de données · Publicité sur aprs.fi · Détails techniques · API · Journal des changements · Modifications futures · Droits et remerciements · Conditions d'utilisation · iPhone/iPad APRS